createdAt,value
2023-02-18T00:00:15.554Z,1.80
2023-02-18T00:02:42.526Z,2.00
2023-02-18T00:05:09.305Z,1.17
2023-02-18T00:07:38.420Z,2.38
2023-02-18T00:10:07.982Z,1.55
2023-02-18T00:12:34.757Z,1.95
2023-02-18T00:15:01.497Z,1.70
2023-02-18T00:17:28.907Z,1.55
2023-02-18T00:19:56.112Z,1.73
2023-02-18T00:22:23.093Z,1.33
2023-02-18T00:24:51.791Z,1.90
2023-02-18T00:27:18.802Z,1.63
2023-02-18T00:29:45.530Z,1.48
2023-02-18T00:32:12.479Z,1.42
2023-02-18T00:34:39.241Z,1.30
2023-02-18T00:37:05.969Z,1.83
2023-02-18T00:39:32.694Z,1.35
2023-02-18T00:42:00.873Z,1.75
2023-02-18T00:44:27.619Z,1.50
2023-02-18T00:46:54.428Z,1.10
2023-02-18T00:49:21.194Z,1.88
2023-02-18T00:51:47.945Z,1.23
2023-02-18T00:54:14.661Z,1.30
2023-02-18T00:56:41.397Z,1.10
2023-02-18T00:59:09.651Z,1.23
2023-02-18T01:01:36.444Z,1.48
2023-02-18T01:04:03.386Z,1.23
2023-02-18T01:06:30.110Z,0.90
2023-02-18T01:08:56.861Z,0.98
2023-02-18T01:11:23.837Z,1.20
2023-02-18T01:13:50.888Z,1.30
2023-02-18T01:16:19.391Z,0.70
2023-02-18T01:18:46.363Z,1.67
2023-02-18T01:21:13.872Z,1.20
2023-02-18T01:23:41.646Z,1.08
2023-02-18T01:26:09.914Z,1.10
2023-02-18T01:28:37.110Z,1.20
2023-02-18T01:31:06.379Z,1.10
2023-02-18T01:33:35.138Z,1.00
2023-02-18T01:36:02.263Z,1.20
2023-02-18T01:38:29.151Z,1.00
2023-02-18T01:40:56.033Z,1.00
2023-02-18T01:43:23.215Z,1.23
2023-02-18T01:46:06.805Z,1.30
2023-02-18T01:48:41.336Z,1.48
2023-02-18T01:51:13.389Z,1.10
2023-02-18T01:53:46.681Z,1.00
2023-02-18T01:56:20.158Z,1.30
2023-02-18T01:58:47.740Z,1.00
2023-02-18T02:01:14.709Z,1.30
2023-02-18T02:03:42.819Z,1.17
2023-02-18T02:06:16.070Z,1.10
2023-02-18T02:08:43.620Z,1.43
2023-02-18T02:11:22.411Z,1.45
2023-02-18T02:14:08.563Z,1.20
2023-02-18T02:16:43.184Z,1.60
2023-02-18T02:19:35.381Z,1.10
2023-02-18T02:22:38.937Z,1.23
2023-02-18T02:25:17.630Z,1.42
2023-02-18T02:28:17.544Z,1.27
2023-02-18T02:31:01.004Z,1.63
2023-02-18T02:33:54.615Z,1.25
2023-02-18T02:36:27.772Z,1.30
2023-02-18T02:39:01.124Z,1.23
2023-02-18T02:41:45.815Z,1.13
2023-02-18T02:44:20.586Z,1.45
2023-02-18T02:46:51.110Z,1.20
2023-02-18T02:49:32.784Z,1.15
2023-02-18T02:52:05.745Z,1.23
2023-02-18T02:54:32.866Z,1.30
2023-02-18T02:57:08.939Z,1.05
2023-02-18T02:59:37.402Z,1.25
2023-02-18T03:02:22.161Z,0.93
2023-02-18T03:05:04.585Z,1.27
2023-02-18T03:07:43.886Z,1.00
2023-02-18T03:10:25.374Z,1.48
2023-02-18T03:13:02.164Z,0.90
2023-02-18T03:15:41.653Z,1.40
2023-02-18T03:18:16.512Z,1.08
2023-02-18T03:20:50.058Z,1.30
2023-02-18T03:23:22.840Z,0.90
2023-02-18T03:25:50.740Z,1.33
2023-02-18T03:28:20.089Z,1.30
2023-02-18T03:30:50.393Z,1.27
2023-02-18T03:33:22.040Z,1.50
2023-02-18T03:35:50.086Z,1.35
2023-02-18T03:38:22.036Z,1.15
2023-02-18T03:40:49.182Z,1.30
2023-02-18T03:43:15.980Z,1.23
2023-02-18T03:45:43.855Z,1.50
2023-02-18T03:48:10.860Z,1.15
2023-02-18T03:50:37.562Z,1.10
2023-02-18T03:53:04.304Z,1.30
2023-02-18T03:55:32.356Z,1.17
2023-02-18T03:57:59.096Z,1.20
2023-02-18T04:00:25.798Z,1.25
2023-02-18T04:02:52.542Z,1.20
2023-02-18T04:05:19.367Z,1.33
2023-02-18T04:07:46.110Z,1.10
2023-02-18T04:10:13.014Z,0.90
2023-02-18T04:12:41.092Z,1.10
2023-02-18T04:15:08.560Z,1.17
2023-02-18T04:17:35.349Z,0.88
2023-02-18T04:20:02.137Z,1.20
2023-02-18T04:22:28.892Z,1.10
2023-02-18T04:24:55.607Z,1.30
2023-02-18T04:27:22.324Z,0.90
2023-02-18T04:29:50.600Z,1.08
2023-02-18T04:32:17.304Z,1.02
2023-02-18T04:34:44.184Z,0.73
2023-02-18T04:37:10.968Z,1.10
2023-02-18T04:39:37.692Z,0.93
2023-02-18T04:42:04.471Z,1.02
2023-02-18T04:44:31.197Z,0.82
2023-02-18T04:46:59.238Z,1.23
2023-02-18T04:49:26.080Z,1.20
2023-02-18T04:51:52.772Z,1.05
2023-02-18T04:54:19.483Z,0.82
2023-02-18T04:56:46.194Z,1.00
2023-02-18T04:59:12.895Z,1.10
2023-02-18T05:01:39.765Z,1.10
2023-02-18T05:04:08.064Z,0.90
2023-02-18T05:06:34.783Z,1.35
2023-02-18T05:09:01.534Z,1.27
2023-02-18T05:11:28.295Z,1.35
2023-02-18T05:13:55.004Z,1.10
2023-02-18T05:16:21.734Z,1.27
2023-02-18T05:18:48.524Z,1.15
2023-02-18T05:21:16.603Z,1.00
2023-02-18T05:23:43.302Z,1.25
2023-02-18T05:26:10.457Z,1.15
2023-02-18T05:28:37.375Z,1.02
2023-02-18T05:31:04.410Z,1.30
2023-02-18T05:33:31.227Z,1.00
2023-02-18T05:35:58.022Z,0.90
2023-02-18T05:38:26.147Z,1.00
2023-02-18T05:40:52.840Z,1.10
2023-02-18T05:43:19.585Z,1.15
2023-02-18T05:45:46.397Z,1.00
2023-02-18T05:48:13.189Z,1.10
2023-02-18T05:50:40.303Z,0.80
2023-02-18T05:53:07.215Z,1.00
2023-02-18T05:55:35.294Z,1.00
2023-02-18T05:58:02.001Z,1.08
2023-02-18T06:00:28.813Z,0.93
2023-02-18T06:02:55.586Z,0.82
2023-02-18T06:05:22.293Z,1.10
2023-02-18T06:07:49.032Z,0.90
2023-02-18T06:10:15.902Z,0.90
2023-02-18T06:12:43.990Z,0.95
2023-02-18T06:15:10.964Z,0.82
2023-02-18T06:17:37.658Z,0.52
2023-02-18T06:20:05.136Z,0.90
2023-02-18T06:22:31.873Z,0.90
2023-02-18T06:24:58.554Z,0.88
2023-02-18T06:27:25.415Z,0.80
2023-02-18T06:29:53.463Z,0.80
2023-02-18T06:32:20.317Z,0.77
2023-02-18T06:34:47.109Z,0.80
2023-02-18T06:37:13.922Z,0.82
2023-02-18T06:39:40.633Z,0.90
2023-02-18T06:42:07.611Z,0.80
2023-02-18T06:44:36.348Z,1.10
2023-02-18T06:47:05.708Z,0.55
2023-02-18T06:49:32.437Z,0.50
2023-02-18T06:51:59.295Z,0.70
2023-02-18T06:54:26.058Z,0.80
2023-02-18T06:56:52.777Z,0.80
2023-02-18T06:59:19.577Z,0.80
2023-02-18T07:01:46.281Z,0.90
2023-02-18T07:04:14.369Z,0.68
2023-02-18T07:06:41.087Z,0.80
2023-02-18T07:09:08.263Z,0.80
2023-02-18T07:11:35.189Z,0.90
2023-02-18T07:14:02.003Z,0.88
2023-02-18T07:16:28.828Z,1.05
2023-02-18T07:18:55.638Z,0.90
2023-02-18T07:21:23.702Z,1.05
2023-02-18T07:23:50.407Z,0.63
2023-02-18T07:26:17.157Z,0.90
2023-02-18T07:28:44.052Z,0.85
2023-02-18T07:31:11.092Z,1.08
2023-02-18T07:33:37.876Z,0.90
2023-02-18T07:36:05.451Z,0.90
2023-02-18T07:38:33.498Z,0.93
2023-02-18T07:41:00.273Z,1.08
2023-02-18T07:43:27.138Z,0.90
2023-02-18T07:45:54.117Z,0.70
2023-02-18T07:48:21.279Z,0.88
2023-02-18T07:50:48.140Z,1.02
2023-02-18T07:53:16.505Z,0.80
2023-02-18T07:55:44.600Z,0.70
2023-02-18T07:58:11.518Z,0.65
2023-02-18T08:00:38.294Z,0.70
2023-02-18T08:03:05.023Z,0.80
2023-02-18T08:05:31.880Z,0.98
2023-02-18T08:07:58.703Z,0.70
2023-02-18T08:10:25.431Z,0.90
2023-02-18T08:12:53.489Z,0.63
2023-02-18T08:15:20.200Z,0.60
2023-02-18T08:17:46.938Z,0.90
2023-02-18T08:20:13.782Z,0.65
2023-02-18T08:22:40.463Z,0.70
2023-02-18T08:25:08.340Z,0.73
2023-02-18T08:27:35.903Z,0.80
2023-02-18T08:30:04.599Z,0.70
2023-02-18T08:32:31.371Z,0.73
2023-02-18T08:34:58.093Z,0.52
2023-02-18T08:37:24.783Z,0.70
2023-02-18T08:39:51.566Z,0.55
2023-02-18T08:42:18.320Z,0.60
2023-02-18T08:44:45.216Z,0.60
2023-02-18T08:48:17.599Z,0.90
2023-02-18T08:50:00.548Z,0.90
2023-02-18T08:52:27.938Z,0.70
2023-02-18T08:54:54.681Z,0.57
2023-02-18T08:57:21.535Z,0.75
2023-02-18T08:59:48.319Z,0.70
2023-02-18T09:02:16.417Z,0.68
2023-02-18T09:04:43.479Z,0.70
2023-02-18T09:07:10.280Z,0.80
2023-02-18T09:09:37.038Z,0.80
2023-02-18T09:12:04.145Z,0.50
2023-02-18T09:14:31.137Z,0.90
2023-02-18T09:16:58.048Z,0.70
2023-02-18T09:19:26.416Z,0.82
2023-02-18T09:21:53.192Z,0.57
2023-02-18T09:24:19.911Z,0.73
2023-02-18T09:26:46.818Z,0.70
2023-02-18T09:29:13.562Z,0.63
2023-02-18T09:31:40.319Z,0.50
2023-02-18T09:34:07.374Z,0.70
2023-02-18T09:36:35.436Z,0.80
2023-02-18T09:39:02.205Z,0.60
2023-02-18T09:41:39.153Z,0.90
2023-02-18T09:44:10.708Z,0.70
2023-02-18T09:46:42.855Z,0.75
2023-02-18T09:49:21.424Z,0.43
2023-02-18T09:51:48.254Z,0.75
2023-02-18T09:54:18.646Z,0.80
2023-02-18T09:56:46.504Z,0.70
2023-02-18T09:59:17.902Z,0.70
2023-02-18T10:01:46.473Z,0.60
2023-02-18T10:04:18.088Z,1.05
2023-02-18T10:06:47.969Z,0.47
2023-02-18T10:09:19.527Z,0.60
2023-02-18T10:11:49.051Z,0.55
2023-02-18T10:14:16.154Z,0.35
2023-02-18T10:16:44.876Z,0.50
2023-02-18T10:19:23.909Z,0.52
2023-02-18T10:21:52.197Z,0.50
2023-02-18T10:24:29.519Z,0.82
2023-02-18T10:26:57.135Z,0.38
2023-02-18T10:29:24.824Z,0.50
2023-02-18T10:31:55.985Z,0.43
2023-02-18T10:34:36.378Z,0.40
2023-02-18T10:37:15.619Z,0.52
2023-02-18T10:39:52.199Z,0.47
2023-02-18T10:42:28.839Z,0.50
2023-02-18T10:45:04.281Z,0.68
2023-02-18T10:47:43.507Z,0.52
2023-02-18T10:50:17.409Z,0.43
2023-02-18T10:52:49.052Z,0.57
2023-02-18T10:55:16.789Z,0.52
2023-02-18T10:57:49.045Z,0.70
2023-02-18T11:00:19.059Z,0.50
2023-02-18T11:02:46.641Z,0.40
2023-02-18T11:05:24.537Z,0.65
2023-02-18T11:07:53.310Z,0.30
2023-02-18T11:10:24.929Z,0.57
2023-02-18T11:12:56.183Z,0.35
2023-02-18T11:15:24.500Z,0.50
2023-02-18T11:17:52.736Z,0.68
2023-02-18T11:20:25.895Z,0.47
2023-02-18T11:22:56.842Z,0.82
2023-02-18T11:25:25.247Z,0.55
2023-02-18T11:27:55.911Z,0.55
2023-02-18T11:30:25.033Z,0.70
2023-02-18T11:32:56.094Z,0.80
2023-02-18T11:35:26.881Z,0.73
2023-02-18T11:37:55.835Z,0.70
2023-02-18T11:40:25.520Z,0.65
2023-02-18T11:43:01.911Z,0.40
2023-02-18T11:45:31.114Z,0.60
2023-02-18T11:48:06.249Z,0.80
2023-02-18T11:50:35.411Z,0.63
2023-02-18T11:53:26.871Z,0.68
2023-02-18T11:55:55.741Z,0.40
2023-02-18T11:58:22.593Z,0.75
2023-02-18T12:00:51.145Z,0.65
2023-02-18T12:03:28.448Z,0.70
2023-02-18T12:05:58.548Z,0.73
2023-02-18T12:08:28.633Z,0.52
2023-02-18T12:11:01.778Z,0.75
2023-02-18T12:13:33.723Z,0.60
2023-02-18T12:16:11.103Z,0.57
2023-02-18T12:19:03.029Z,0.70
2023-02-18T12:21:41.223Z,0.50
2023-02-18T12:24:20.705Z,0.70
2023-02-18T12:26:58.856Z,0.73
2023-02-18T12:29:45.368Z,0.80
2023-02-18T12:32:23.447Z,0.40
2023-02-18T12:35:03.188Z,0.57
2023-02-18T12:37:45.165Z,0.45
2023-02-18T12:40:30.811Z,0.80
2023-02-18T12:43:05.913Z,0.60
2023-02-18T12:45:45.068Z,0.70
2023-02-18T12:48:27.566Z,0.90
2023-02-18T12:51:11.423Z,0.40
2023-02-18T12:53:51.600Z,0.65
2023-02-18T12:56:40.933Z,0.75
2023-02-18T12:59:17.842Z,0.55
2023-02-18T13:01:53.945Z,0.45
2023-02-18T13:04:41.732Z,0.47
2023-02-18T13:07:33.260Z,0.50
2023-02-18T13:10:21.396Z,0.65
2023-02-18T13:12:54.343Z,0.60
2023-02-18T13:15:27.211Z,0.63
2023-02-18T13:17:57.109Z,0.50
2023-02-18T13:20:29.363Z,0.50
2023-02-18T13:22:57.039Z,0.70
2023-02-18T13:25:26.163Z,0.65
2023-02-18T13:28:06.666Z,0.35
2023-02-18T13:30:41.008Z,0.60
2023-02-18T13:33:14.250Z,0.50
2023-02-18T13:35:46.674Z,1.75
2023-02-18T13:38:59.948Z,0.47
2023-02-18T13:41:28.128Z,0.55
2023-02-18T13:43:54.958Z,0.60
2023-02-18T13:46:22.815Z,0.75
2023-02-18T13:48:52.927Z,0.68
2023-02-18T13:51:30.275Z,0.60
2023-02-18T13:54:02.693Z,0.50
2023-02-18T13:56:33.052Z,0.95
2023-02-18T13:59:02.795Z,0.65
2023-02-18T14:01:42.901Z,0.60
2023-02-18T14:04:34.607Z,0.90
2023-02-18T14:07:44.273Z,0.73
2023-02-18T14:10:33.819Z,0.70
2023-02-18T14:13:38.077Z,0.70
2023-02-18T14:16:04.901Z,0.40
2023-02-18T14:18:36.877Z,0.90
2023-02-18T14:21:22.419Z,0.40
2023-02-18T14:24:01.236Z,0.40
2023-02-18T14:26:36.879Z,0.77
2023-02-18T14:29:11.181Z,0.60
2023-02-18T14:31:49.889Z,0.50
2023-02-18T14:34:40.393Z,0.65
2023-02-18T14:37:24.131Z,0.40
2023-02-18T14:40:00.399Z,0.60
2023-02-18T14:42:38.159Z,0.52
2023-02-18T14:45:31.282Z,0.52
2023-02-18T14:48:32.201Z,0.60
2023-02-18T14:50:59.249Z,0.85
2023-02-18T14:53:27.187Z,0.70
2023-02-18T14:55:58.331Z,0.70
2023-02-18T14:58:30.239Z,0.70
2023-02-18T15:00:58.752Z,0.75
2023-02-18T15:03:27.059Z,0.60
2023-02-18T15:05:54.341Z,0.57
2023-02-18T15:08:22.782Z,0.65
2023-02-18T15:10:53.108Z,0.68
2023-02-18T15:13:23.609Z,0.50
2023-02-18T15:15:53.806Z,1.10
2023-02-18T15:18:29.560Z,0.70
2023-02-18T15:20:56.890Z,0.60
2023-02-18T15:23:23.807Z,0.70
2023-02-18T15:25:53.268Z,0.57
2023-02-18T15:28:25.774Z,0.73
2023-02-18T15:30:52.953Z,0.60
2023-02-18T15:33:22.227Z,0.70
2023-02-18T15:35:49.018Z,0.80
2023-02-18T15:38:17.020Z,0.85
2023-02-18T15:40:46.951Z,0.73
2023-02-18T15:43:17.480Z,0.85
2023-02-18T15:45:46.886Z,0.75
2023-02-18T15:48:27.330Z,0.57
2023-02-18T15:50:58.545Z,0.77
2023-02-18T15:53:30.675Z,0.65
2023-02-18T15:55:57.623Z,0.70
2023-02-18T15:58:28.664Z,0.80
2023-02-18T16:00:57.086Z,0.63
2023-02-18T16:03:27.157Z,0.68
2023-02-18T16:06:17.535Z,0.57
2023-02-18T16:08:56.036Z,0.88
2023-02-18T16:11:25.227Z,0.63
2023-02-18T16:13:52.181Z,0.80
2023-02-18T16:16:24.268Z,0.63
2023-02-18T16:18:52.444Z,0.73
2023-02-18T16:21:31.511Z,0.60
2023-02-18T16:24:00.592Z,0.70
2023-02-18T16:26:31.076Z,0.60
2023-02-18T16:29:12.800Z,0.77
2023-02-18T16:31:40.728Z,0.60
2023-02-18T16:34:08.952Z,0.70
2023-02-18T16:36:35.710Z,0.80
2023-02-18T16:39:02.821Z,0.60
2023-02-18T16:41:29.959Z,0.80
2023-02-18T16:43:57.641Z,1.00
2023-02-18T16:46:24.968Z,0.80
2023-02-18T16:48:54.004Z,0.80
2023-02-18T16:51:24.807Z,0.50
2023-02-18T16:53:51.760Z,0.60
2023-02-18T16:56:20.841Z,0.70
2023-02-18T16:58:47.607Z,0.90
2023-02-18T17:01:22.620Z,0.88
2023-02-18T17:03:49.499Z,0.90
2023-02-18T17:06:16.741Z,0.88
2023-02-18T17:08:44.977Z,0.85
2023-02-18T17:11:18.681Z,0.90
2023-02-18T17:13:45.407Z,0.77
2023-02-18T17:16:12.385Z,0.88
2023-02-18T17:18:39.301Z,1.00
2023-02-18T17:21:06.134Z,0.88
2023-02-18T17:23:32.845Z,0.85
2023-02-18T17:26:00.918Z,0.82
2023-02-18T17:28:27.601Z,0.85
2023-02-18T17:30:58.636Z,0.70
2023-02-18T17:33:25.771Z,0.70
2023-02-18T17:35:52.521Z,1.00
2023-02-18T17:38:20.060Z,0.82
2023-02-18T17:40:47.953Z,0.77
2023-02-18T17:43:17.987Z,1.00
2023-02-18T17:45:48.785Z,0.60
2023-02-18T17:48:15.663Z,0.90
2023-02-18T17:50:42.637Z,0.82
2023-02-18T17:53:10.298Z,0.80
2023-02-18T17:55:37.958Z,0.70
2023-02-18T17:58:04.701Z,1.20
2023-02-18T18:00:34.773Z,1.20
2023-02-18T18:03:02.166Z,0.82
2023-02-18T18:05:30.763Z,1.00
2023-02-18T18:07:57.613Z,0.88
2023-02-18T18:10:26.573Z,0.70
2023-02-18T18:12:53.294Z,1.08
2023-02-18T18:15:23.750Z,0.77
2023-02-18T18:17:52.156Z,0.98
2023-02-18T18:20:20.054Z,1.00
2023-02-18T18:22:47.069Z,0.68
2023-02-18T18:25:23.519Z,1.02
2023-02-18T18:27:50.763Z,0.88
2023-02-18T18:30:18.509Z,0.70
2023-02-18T18:32:45.243Z,1.17
2023-02-18T18:35:22.781Z,0.80
2023-02-18T18:37:50.118Z,1.00
2023-02-18T18:40:17.288Z,0.80
2023-02-18T18:42:44.270Z,1.20
2023-02-18T18:45:18.381Z,0.90
2023-02-18T18:50:12.692Z,1.02
2023-02-18T18:52:41.164Z,0.85
2023-02-18T18:55:22.196Z,0.98
2023-02-18T18:57:49.233Z,0.98
2023-02-18T19:00:18.014Z,1.27
2023-02-18T19:02:44.852Z,0.90
2023-02-18T19:05:35.277Z,0.98
2023-02-18T19:08:04.387Z,0.90
2023-02-18T19:10:33.118Z,0.90
2023-02-18T19:13:02.270Z,1.13
2023-02-18T19:15:29.561Z,1.10
2023-02-18T19:17:56.348Z,1.05
2023-02-18T19:20:24.740Z,1.08
2023-02-18T19:22:52.098Z,1.00
2023-02-18T19:25:21.642Z,1.08
2023-02-18T19:27:49.890Z,1.20
2023-02-18T19:30:18.809Z,0.98
2023-02-18T19:32:45.895Z,1.20
2023-02-18T19:35:12.950Z,1.05
2023-02-18T19:37:39.675Z,1.08
2023-02-18T19:40:08.813Z,1.20
2023-02-18T19:42:37.757Z,1.30
2023-02-18T19:45:05.213Z,1.20
2023-02-18T19:47:31.903Z,1.17
2023-02-18T19:49:59.855Z,1.17
2023-02-18T19:52:27.001Z,0.85
2023-02-18T19:54:53.727Z,1.60
2023-02-18T19:57:20.482Z,1.02
2023-02-18T19:59:48.904Z,0.95
2023-02-18T20:02:19.600Z,1.23
2023-02-18T20:04:46.967Z,1.08
2023-02-18T20:07:14.178Z,1.30
2023-02-18T20:09:41.020Z,1.05
2023-02-18T20:12:08.692Z,1.05
2023-02-18T20:14:35.776Z,1.00
2023-02-18T20:17:03.925Z,1.13
2023-02-18T20:19:31.895Z,1.38
2023-02-18T20:21:58.860Z,1.10
2023-02-18T20:24:26.100Z,1.20
2023-02-18T20:26:52.805Z,1.20
2023-02-18T20:29:19.523Z,1.30
2023-02-18T20:31:46.360Z,1.45
2023-02-18T20:34:14.632Z,1.10
2023-02-18T20:36:41.419Z,1.38
2023-02-18T20:39:16.262Z,1.20
2023-02-18T20:41:43.519Z,1.05
2023-02-18T20:44:10.453Z,1.23
2023-02-18T20:46:38.663Z,1.45
2023-02-18T20:49:06.087Z,1.38
2023-02-18T20:51:35.181Z,1.15
2023-02-18T20:54:03.387Z,1.13
2023-02-18T20:56:30.336Z,1.20
2023-02-18T20:58:57.113Z,1.20
2023-02-18T21:01:23.906Z,1.02
2023-02-18T21:03:50.668Z,1.45
2023-02-18T21:06:20.574Z,1.00
2023-02-18T21:08:51.273Z,1.17
2023-02-18T21:11:19.852Z,1.23
2023-02-18T21:13:47.680Z,1.40
2023-02-18T21:16:15.791Z,1.17
2023-02-18T21:18:42.647Z,1.20
2023-02-18T21:21:11.115Z,1.17
2023-02-18T21:23:39.263Z,1.50
2023-02-18T21:26:09.308Z,1.30
2023-02-18T21:28:36.125Z,1.30
2023-02-18T21:31:03.037Z,1.08
2023-02-18T21:33:30.359Z,1.40
2023-02-18T21:36:00.819Z,0.82
2023-02-18T21:38:27.542Z,1.20
2023-02-18T21:40:54.237Z,1.30
2023-02-18T21:43:22.372Z,1.30
2023-02-18T21:45:49.092Z,1.30
2023-02-18T21:48:15.840Z,1.20
2023-02-18T21:50:42.551Z,1.50
2023-02-18T21:53:09.227Z,1.20
2023-02-18T21:55:35.928Z,1.08
2023-02-18T21:58:02.630Z,1.02
2023-02-18T22:00:30.784Z,1.23
2023-02-18T22:02:57.487Z,1.10
2023-02-18T22:05:24.189Z,1.25
2023-02-18T22:07:51.163Z,1.00
2023-02-18T22:10:17.988Z,1.27
2023-02-18T22:12:44.757Z,1.30
2023-02-18T22:15:11.653Z,1.33
2023-02-18T22:17:39.793Z,1.10
2023-02-18T22:20:07.611Z,1.33
2023-02-18T22:22:34.702Z,1.30
2023-02-18T22:25:01.420Z,1.50
2023-02-18T22:27:28.186Z,1.00
2023-02-18T22:29:54.909Z,1.40
2023-02-18T22:32:21.806Z,1.60
2023-02-18T22:34:49.860Z,1.30
2023-02-18T22:37:16.561Z,1.30
2023-02-18T22:39:43.240Z,1.38
2023-02-18T22:42:09.956Z,1.17
2023-02-18T22:44:36.694Z,1.63
2023-02-18T22:47:03.447Z,1.27
2023-02-18T22:49:30.142Z,1.20
2023-02-18T22:51:58.206Z,1.40
2023-02-18T22:54:24.916Z,1.30
2023-02-18T22:56:53.200Z,1.45
2023-02-18T22:59:19.918Z,1.40
2023-02-18T23:01:48.599Z,1.20
2023-02-18T23:04:17.219Z,1.15
2023-02-18T23:06:45.464Z,1.00
2023-02-18T23:09:15.421Z,1.17
2023-02-18T23:11:42.217Z,1.10
2023-02-18T23:14:09.441Z,1.10
2023-02-18T23:16:37.117Z,1.30
2023-02-18T23:19:03.837Z,1.00
2023-02-18T23:21:30.590Z,0.98
2023-02-18T23:23:57.297Z,1.00
2023-02-18T23:26:25.783Z,1.13
2023-02-18T23:28:53.187Z,1.20
2023-02-18T23:31:21.868Z,1.10
2023-02-18T23:33:50.057Z,1.00
2023-02-18T23:36:18.920Z,1.30
2023-02-18T23:38:47.483Z,1.30
2023-02-18T23:41:14.306Z,1.15
2023-02-18T23:43:42.374Z,1.20
2023-02-18T23:46:09.135Z,1.20
2023-02-18T23:48:38.260Z,1.00
2023-02-18T23:51:07.843Z,1.23
2023-02-18T23:53:36.646Z,1.27
2023-02-18T23:56:07.019Z,1.00
2023-02-18T23:58:34.074Z,1.10
